sensor_id;sensor_type;location;lat;lon;timestamp;temperature;humidity
79140;HTU21D;68546;59.142;37.948;2023-07-02T00:01:57;21.53;59.30
79140;HTU21D;68546;59.142;37.948;2023-07-02T00:04:23;21.50;59.44
79140;HTU21D;68546;59.142;37.948;2023-07-02T00:06:50;21.49;59.49
79140;HTU21D;68546;59.142;37.948;2023-07-02T00:09:16;21.46;59.58
79140;HTU21D;68546;59.142;37.948;2023-07-02T00:11:44;21.44;59.68
79140;HTU21D;68546;59.142;37.948;2023-07-02T00:14:12;21.39;59.70
79140;HTU21D;68546;59.142;37.948;2023-07-02T00:16:44;21.35;59.88
79140;HTU21D;68546;59.142;37.948;2023-07-02T00:19:14;21.31;59.90
79140;HTU21D;68546;59.142;37.948;2023-07-02T00:21:41;21.27;59.99
79140;HTU21D;68546;59.142;37.948;2023-07-02T00:24:08;21.20;60.22
79140;HTU21D;68546;59.142;37.948;2023-07-02T00:26:38;21.19;60.36
79140;HTU21D;68546;59.142;37.948;2023-07-02T00:29:09;21.14;60.59
79140;HTU21D;68546;59.142;37.948;2023-07-02T00:31:35;21.10;60.72
79140;HTU21D;68546;59.142;37.948;2023-07-02T00:34:01;21.09;60.98
79140;HTU21D;68546;59.142;37.948;2023-07-02T00:36:28;21.07;61.08
79140;HTU21D;68546;59.142;37.948;2023-07-02T00:38:55;21.06;61.23
79140;HTU21D;68546;59.142;37.948;2023-07-02T00:41:22;21.04;61.60
79140;HTU21D;68546;59.142;37.948;2023-07-02T00:43:48;21.03;61.83
79140;HTU21D;68546;59.142;37.948;2023-07-02T00:46:16;21.00;61.94
79140;HTU21D;68546;59.142;37.948;2023-07-02T00:48:53;20.98;62.14
79140;HTU21D;68546;59.142;37.948;2023-07-02T00:51:25;20.95;62.31
79140;HTU21D;68546;59.142;37.948;2023-07-02T00:53:53;20.91;62.58
79140;HTU21D;68546;59.142;37.948;2023-07-02T00:56:21;20.89;62.65
79140;HTU21D;68546;59.142;37.948;2023-07-02T00:58:49;20.86;62.99
79140;HTU21D;68546;59.142;37.948;2023-07-02T01:01:18;20.85;63.18
79140;HTU21D;68546;59.142;37.948;2023-07-02T01:03:57;20.80;63.44
79140;HTU21D;68546;59.142;37.948;2023-07-02T01:06:27;20.78;63.66
79140;HTU21D;68546;59.142;37.948;2023-07-02T01:08:58;20.77;63.93
79140;HTU21D;68546;59.142;37.948;2023-07-02T01:11:27;20.75;64.05
79140;HTU21D;68546;59.142;37.948;2023-07-02T01:16:43;20.72;64.23
79140;HTU21D;68546;59.142;37.948;2023-07-02T01:19:16;20.72;64.35
79140;HTU21D;68546;59.142;37.948;2023-07-02T01:21:48;20.71;64.50
79140;HTU21D;68546;59.142;37.948;2023-07-02T01:24:16;20.71;64.59
79140;HTU21D;68546;59.142;37.948;2023-07-02T01:26:43;20.73;64.67
79140;HTU21D;68546;59.142;37.948;2023-07-02T01:29:19;20.74;64.76
79140;HTU21D;68546;59.142;37.948;2023-07-02T01:31:47;20.76;64.85
79140;HTU21D;68546;59.142;37.948;2023-07-02T01:34:14;20.78;64.89
79140;HTU21D;68546;59.142;37.948;2023-07-02T01:36:41;20.80;64.84
79140;HTU21D;68546;59.142;37.948;2023-07-02T01:39:07;20.80;64.92
79140;HTU21D;68546;59.142;37.948;2023-07-02T01:41:41;20.80;64.89
79140;HTU21D;68546;59.142;37.948;2023-07-02T01:44:09;20.81;64.87
79140;HTU21D;68546;59.142;37.948;2023-07-02T01:46:35;20.81;64.89
79140;HTU21D;68546;59.142;37.948;2023-07-02T01:49:01;20.83;64.87
79140;HTU21D;68546;59.142;37.948;2023-07-02T01:51:29;20.85;64.87
79140;HTU21D;68546;59.142;37.948;2023-07-02T01:54:00;20.85;64.84
79140;HTU21D;68546;59.142;37.948;2023-07-02T01:56:27;20.85;64.83
79140;HTU21D;68546;59.142;37.948;2023-07-02T01:58:54;20.85;64.83
79140;HTU21D;68546;59.142;37.948;2023-07-02T02:01:20;20.86;64.88
79140;HTU21D;68546;59.142;37.948;2023-07-02T02:03:47;20.85;64.97
79140;HTU21D;68546;59.142;37.948;2023-07-02T02:06:13;20.86;64.97
79140;HTU21D;68546;59.142;37.948;2023-07-02T02:08:39;20.86;65.02
79140;HTU21D;68546;59.142;37.948;2023-07-02T02:11:06;20.85;65.10
79140;HTU21D;68546;59.142;37.948;2023-07-02T02:13:32;20.84;65.17
79140;HTU21D;68546;59.142;37.948;2023-07-02T02:15:59;20.81;65.29
79140;HTU21D;68546;59.142;37.948;2023-07-02T02:18:25;20.79;65.38
79140;HTU21D;68546;59.142;37.948;2023-07-02T02:20:52;20.79;65.58
79140;HTU21D;68546;59.142;37.948;2023-07-02T02:23:18;20.76;65.67
79140;HTU21D;68546;59.142;37.948;2023-07-02T02:25:45;20.77;65.82
79140;HTU21D;68546;59.142;37.948;2023-07-02T02:28:12;20.77;65.94
79140;HTU21D;68546;59.142;37.948;2023-07-02T02:30:38;20.76;66.14
79140;HTU21D;68546;59.142;37.948;2023-07-02T02:33:05;20.77;66.23
79140;HTU21D;68546;59.142;37.948;2023-07-02T02:35:32;20.77;66.34
79140;HTU21D;68546;59.142;37.948;2023-07-02T02:38:01;20.77;66.40
79140;HTU21D;68546;59.142;37.948;2023-07-02T02:40:28;20.77;66.49
79140;HTU21D;68546;59.142;37.948;2023-07-02T02:42:55;20.78;66.50
79140;HTU21D;68546;59.142;37.948;2023-07-02T02:45:21;20.81;66.59
79140;HTU21D;68546;59.142;37.948;2023-07-02T02:47:48;20.83;66.66
79140;HTU21D;68546;59.142;37.948;2023-07-02T02:50:14;20.85;66.62
79140;HTU21D;68546;59.142;37.948;2023-07-02T02:52:41;20.87;66.56
79140;HTU21D;68546;59.142;37.948;2023-07-02T02:55:08;20.91;66.47
79140;HTU21D;68546;59.142;37.948;2023-07-02T02:57:35;20.98;66.50
79140;HTU21D;68546;59.142;37.948;2023-07-02T03:00:01;21.04;66.36
79140;HTU21D;68546;59.142;37.948;2023-07-02T03:02:28;21.10;66.16
79140;HTU21D;68546;59.142;37.948;2023-07-02T03:04:55;21.14;65.91
79140;HTU21D;68546;59.142;37.948;2023-07-02T03:07:23;21.18;65.69
79140;HTU21D;68546;59.142;37.948;2023-07-02T03:09:49;21.22;65.44
79140;HTU21D;68546;59.142;37.948;2023-07-02T03:12:15;21.24;65.19
79140;HTU21D;68546;59.142;37.948;2023-07-02T03:14:41;21.29;64.92
79140;HTU21D;68546;59.142;37.948;2023-07-02T03:17:08;21.28;64.55
79140;HTU21D;68546;59.142;37.948;2023-07-02T03:19:35;21.30;64.36
79140;HTU21D;68546;59.142;37.948;2023-07-02T03:22:02;21.30;64.20
79140;HTU21D;68546;59.142;37.948;2023-07-02T03:24:28;21.30;63.98
79140;HTU21D;68546;59.142;37.948;2023-07-02T03:26:54;21.29;63.82
79140;HTU21D;68546;59.142;37.948;2023-07-02T03:29:20;21.30;63.79
79140;HTU21D;68546;59.142;37.948;2023-07-02T03:31:47;21.28;63.77
79140;HTU21D;68546;59.142;37.948;2023-07-02T03:34:13;21.28;63.62
79140;HTU21D;68546;59.142;37.948;2023-07-02T03:36:40;21.25;63.55
79140;HTU21D;68546;59.142;37.948;2023-07-02T03:39:06;21.27;63.58
79140;HTU21D;68546;59.142;37.948;2023-07-02T03:41:32;21.30;63.76
79140;HTU21D;68546;59.142;37.948;2023-07-02T03:43:59;21.39;64.01
79140;HTU21D;68546;59.142;37.948;2023-07-02T03:46:25;21.59;64.11
79140;HTU21D;68546;59.142;37.948;2023-07-02T03:48:51;21.82;64.01
79140;HTU21D;68546;59.142;37.948;2023-07-02T03:51:18;22.09;63.66
79140;HTU21D;68546;59.142;37.948;2023-07-02T03:53:44;22.37;63.11
79140;HTU21D;68546;59.142;37.948;2023-07-02T03:56:10;22.65;62.53
79140;HTU21D;68546;59.142;37.948;2023-07-02T03:58:37;22.93;61.71
79140;HTU21D;68546;59.142;37.948;2023-07-02T04:01:03;23.18;60.51
79140;HTU21D;68546;59.142;37.948;2023-07-02T04:03:29;23.42;59.67
79140;HTU21D;68546;59.142;37.948;2023-07-02T04:05:56;23.60;57.42
79140;HTU21D;68546;59.142;37.948;2023-07-02T04:08:22;23.65;55.06
79140;HTU21D;68546;59.142;37.948;2023-07-02T04:10:50;23.57;53.55
79140;HTU21D;68546;59.142;37.948;2023-07-02T04:13:17;23.55;53.75
79140;HTU21D;68546;59.142;37.948;2023-07-02T04:15:43;23.53;53.70
79140;HTU21D;68546;59.142;37.948;2023-07-02T04:18:09;23.53;53.92
79140;HTU21D;68546;59.142;37.948;2023-07-02T04:20:36;23.56;52.80
79140;HTU21D;68546;59.142;37.948;2023-07-02T04:23:05;23.56;53.10
79140;HTU21D;68546;59.142;37.948;2023-07-02T04:25:31;23.57;52.93
79140;HTU21D;68546;59.142;37.948;2023-07-02T04:27:58;23.60;52.78
79140;HTU21D;68546;59.142;37.948;2023-07-02T04:30:25;23.64;51.89
79140;HTU21D;68546;59.142;37.948;2023-07-02T04:32:51;23.69;51.20
79140;HTU21D;68546;59.142;37.948;2023-07-02T04:35:18;23.68;51.47
79140;HTU21D;68546;59.142;37.948;2023-07-02T04:37:44;23.71;51.43
79140;HTU21D;68546;59.142;37.948;2023-07-02T04:40:11;23.77;51.83
79140;HTU21D;68546;59.142;37.948;2023-07-02T04:42:42;23.85;51.62
79140;HTU21D;68546;59.142;37.948;2023-07-02T04:45:14;23.91;51.74
79140;HTU21D;68546;59.142;37.948;2023-07-02T04:47:45;23.99;51.72
79140;HTU21D;68546;59.142;37.948;2023-07-02T04:50:11;24.05;51.87
79140;HTU21D;68546;59.142;37.948;2023-07-02T04:52:38;24.11;51.84
79140;HTU21D;68546;59.142;37.948;2023-07-02T04:55:05;24.16;51.84
79140;HTU21D;68546;59.142;37.948;2023-07-02T04:57:32;24.15;51.37
79140;HTU21D;68546;59.142;37.948;2023-07-02T04:59:59;24.16;51.13
79140;HTU21D;68546;59.142;37.948;2023-07-02T05:02:25;24.16;51.03
79140;HTU21D;68546;59.142;37.948;2023-07-02T05:04:52;24.16;50.80
79140;HTU21D;68546;59.142;37.948;2023-07-02T05:07:18;24.12;50.50
79140;HTU21D;68546;59.142;37.948;2023-07-02T05:09:44;24.08;49.85
79140;HTU21D;68546;59.142;37.948;2023-07-02T05:12:11;24.05;49.83
79140;HTU21D;68546;59.142;37.948;2023-07-02T05:14:37;24.08;49.71
79140;HTU21D;68546;59.142;37.948;2023-07-02T05:17:04;24.11;50.06
79140;HTU21D;68546;59.142;37.948;2023-07-02T05:19:30;24.16;50.12
79140;HTU21D;68546;59.142;37.948;2023-07-02T05:21:56;24.23;49.71
79140;HTU21D;68546;59.142;37.948;2023-07-02T05:24:23;24.24;49.93
79140;HTU21D;68546;59.142;37.948;2023-07-02T05:26:49;24.27;49.96
79140;HTU21D;68546;59.142;37.948;2023-07-02T05:29:17;24.31;50.08
79140;HTU21D;68546;59.142;37.948;2023-07-02T05:31:43;24.35;50.15
79140;HTU21D;68546;59.142;37.948;2023-07-02T05:34:09;24.39;50.18
79140;HTU21D;68546;59.142;37.948;2023-07-02T05:36:35;24.43;50.08
79140;HTU21D;68546;59.142;37.948;2023-07-02T05:39:02;24.48;50.16
79140;HTU21D;68546;59.142;37.948;2023-07-02T05:41:28;24.54;50.13
79140;HTU21D;68546;59.142;37.948;2023-07-02T05:43:57;24.57;50.00
79140;HTU21D;68546;59.142;37.948;2023-07-02T05:46:24;24.61;49.73
79140;HTU21D;68546;59.142;37.948;2023-07-02T05:48:50;24.61;49.49
79140;HTU21D;68546;59.142;37.948;2023-07-02T05:51:21;24.58;49.30
79140;HTU21D;68546;59.142;37.948;2023-07-02T05:53:48;24.54;49.31
79140;HTU21D;68546;59.142;37.948;2023-07-02T05:56:14;24.51;49.39
79140;HTU21D;68546;59.142;37.948;2023-07-02T05:58:40;24.51;49.53
79140;HTU21D;68546;59.142;37.948;2023-07-02T06:01:07;24.51;49.53
79140;HTU21D;68546;59.142;37.948;2023-07-02T06:03:33;24.54;49.24
79140;HTU21D;68546;59.142;37.948;2023-07-02T06:05:59;24.56;48.99
79140;HTU21D;68546;59.142;37.948;2023-07-02T06:08:26;24.59;49.11
79140;HTU21D;68546;59.142;37.948;2023-07-02T06:10:52;24.68;49.23
79140;HTU21D;68546;59.142;37.948;2023-07-02T06:13:18;24.78;49.17
79140;HTU21D;68546;59.142;37.948;2023-07-02T06:15:45;24.88;49.13
79140;HTU21D;68546;59.142;37.948;2023-07-02T06:18:13;25.03;49.11
79140;HTU21D;68546;59.142;37.948;2023-07-02T06:20:39;25.19;48.75
79140;HTU21D;68546;59.142;37.948;2023-07-02T06:23:06;25.29;48.21
79140;HTU21D;68546;59.142;37.948;2023-07-02T06:25:32;25.37;47.88
79140;HTU21D;68546;59.142;37.948;2023-07-02T06:27:59;25.48;47.90
79140;HTU21D;68546;59.142;37.948;2023-07-02T06:30:26;25.57;47.59
79140;HTU21D;68546;59.142;37.948;2023-07-02T06:32:53;25.67;47.24
79140;HTU21D;68546;59.142;37.948;2023-07-02T06:35:20;25.74;46.89
79140;HTU21D;68546;59.142;37.948;2023-07-02T06:37:46;25.82;46.74
79140;HTU21D;68546;59.142;37.948;2023-07-02T06:40:13;25.91;46.51
79140;HTU21D;68546;59.142;37.948;2023-07-02T06:42:40;25.99;46.22
79140;HTU21D;68546;59.142;37.948;2023-07-02T06:45:07;26.07;45.98
79140;HTU21D;68546;59.142;37.948;2023-07-02T06:47:34;26.13;45.79
79140;HTU21D;68546;59.142;37.948;2023-07-02T06:50:00;26.23;45.57
79140;HTU21D;68546;59.142;37.948;2023-07-02T06:52:27;26.33;45.13
79140;HTU21D;68546;59.142;37.948;2023-07-02T06:54:55;26.42;44.77
79140;HTU21D;68546;59.142;37.948;2023-07-02T06:57:21;26.50;44.36
79140;HTU21D;68546;59.142;37.948;2023-07-02T06:59:49;26.57;44.08
79140;HTU21D;68546;59.142;37.948;2023-07-02T07:02:16;26.65;43.93
79140;HTU21D;68546;59.142;37.948;2023-07-02T07:04:42;26.72;43.46
79140;HTU21D;68546;59.142;37.948;2023-07-02T07:07:08;26.73;43.28
79140;HTU21D;68546;59.142;37.948;2023-07-02T07:09:35;26.73;42.99
79140;HTU21D;68546;59.142;37.948;2023-07-02T07:12:01;26.70;42.90
79140;HTU21D;68546;59.142;37.948;2023-07-02T07:14:27;26.65;42.77
79140;HTU21D;68546;59.142;37.948;2023-07-02T07:16:54;26.61;42.77
79140;HTU21D;68546;59.142;37.948;2023-07-02T07:19:20;26.53;42.77
79140;HTU21D;68546;59.142;37.948;2023-07-02T07:21:46;26.52;42.97
79140;HTU21D;68546;59.142;37.948;2023-07-02T07:24:13;26.51;42.97
79140;HTU21D;68546;59.142;37.948;2023-07-02T07:26:39;26.56;43.06
79140;HTU21D;68546;59.142;37.948;2023-07-02T07:29:05;26.63;43.01
79140;HTU21D;68546;59.142;37.948;2023-07-02T07:31:31;26.69;42.93
79140;HTU21D;68546;59.142;37.948;2023-07-02T07:33:58;26.77;42.19
79140;HTU21D;68546;59.142;37.948;2023-07-02T07:36:24;26.77;41.45
79140;HTU21D;68546;59.142;37.948;2023-07-02T07:38:50;26.70;40.76
79140;HTU21D;68546;59.142;37.948;2023-07-02T07:41:17;26.65;39.91
79140;HTU21D;68546;59.142;37.948;2023-07-02T07:43:43;26.53;39.29
79140;HTU21D;68546;59.142;37.948;2023-07-02T07:46:09;26.43;38.85
79140;HTU21D;68546;59.142;37.948;2023-07-02T07:48:36;26.35;38.69
79140;HTU21D;68546;59.142;37.948;2023-07-02T07:51:02;26.31;38.70
79140;HTU21D;68546;59.142;37.948;2023-07-02T07:53:28;26.30;38.91
79140;HTU21D;68546;59.142;37.948;2023-07-02T07:55:55;26.31;38.73
79140;HTU21D;68546;59.142;37.948;2023-07-02T07:58:21;26.28;38.62
79140;HTU21D;68546;59.142;37.948;2023-07-02T08:00:48;26.25;38.52
79140;HTU21D;68546;59.142;37.948;2023-07-02T08:03:14;26.22;38.51
79140;HTU21D;68546;59.142;37.948;2023-07-02T08:05:40;26.21;38.27
79140;HTU21D;68546;59.142;37.948;2023-07-02T08:08:06;26.19;38.31
79140;HTU21D;68546;59.142;37.948;2023-07-02T08:10:34;26.21;38.50
79140;HTU21D;68546;59.142;37.948;2023-07-02T08:13:00;26.25;38.20
79140;HTU21D;68546;59.142;37.948;2023-07-02T08:15:28;26.34;38.11
79140;HTU21D;68546;59.142;37.948;2023-07-02T08:17:54;26.42;37.86
79140;HTU21D;68546;59.142;37.948;2023-07-02T08:20:23;26.52;37.59
79140;HTU21D;68546;59.142;37.948;2023-07-02T08:22:50;26.57;37.50
79140;HTU21D;68546;59.142;37.948;2023-07-02T08:25:19;26.63;36.96
79140;HTU21D;68546;59.142;37.948;2023-07-02T08:27:47;26.64;36.30
79140;HTU21D;68546;59.142;37.948;2023-07-02T08:30:13;26.66;35.89
79140;HTU21D;68546;59.142;37.948;2023-07-02T08:32:40;26.65;35.25
79140;HTU21D;68546;59.142;37.948;2023-07-02T08:35:06;26.64;35.02
79140;HTU21D;68546;59.142;37.948;2023-07-02T08:37:33;26.65;35.04
79140;HTU21D;68546;59.142;37.948;2023-07-02T08:39:59;26.67;34.88
79140;HTU21D;68546;59.142;37.948;2023-07-02T08:42:25;26.67;34.37
79140;HTU21D;68546;59.142;37.948;2023-07-02T08:44:55;26.71;34.57
79140;HTU21D;68546;59.142;37.948;2023-07-02T08:47:23;26.78;34.70
79140;HTU21D;68546;59.142;37.948;2023-07-02T08:49:50;26.86;34.26
79140;HTU21D;68546;59.142;37.948;2023-07-02T08:52:16;26.91;33.91
79140;HTU21D;68546;59.142;37.948;2023-07-02T08:54:42;26.95;33.51
79140;HTU21D;68546;59.142;37.948;2023-07-02T08:57:09;26.94;33.69
79140;HTU21D;68546;59.142;37.948;2023-07-02T08:59:36;26.94;33.86
79140;HTU21D;68546;59.142;37.948;2023-07-02T09:02:02;26.96;33.73
79140;HTU21D;68546;59.142;37.948;2023-07-02T09:04:28;27.02;33.72
79140;HTU21D;68546;59.142;37.948;2023-07-02T09:07:07;27.12;33.84
79140;HTU21D;68546;59.142;37.948;2023-07-02T09:09:45;27.24;33.91
79140;HTU21D;68546;59.142;37.948;2023-07-02T09:12:27;27.36;34.03
79140;HTU21D;68546;59.142;37.948;2023-07-02T09:15:01;27.47;34.12
79140;HTU21D;68546;59.142;37.948;2023-07-02T09:17:29;27.58;34.12
79140;HTU21D;68546;59.142;37.948;2023-07-02T09:19:56;27.66;33.63
79140;HTU21D;68546;59.142;37.948;2023-07-02T09:22:26;27.68;32.70
79140;HTU21D;68546;59.142;37.948;2023-07-02T09:24:55;27.64;31.94
79140;HTU21D;68546;59.142;37.948;2023-07-02T09:27:42;27.54;32.12
79140;HTU21D;68546;59.142;37.948;2023-07-02T09:30:15;27.45;32.22
79140;HTU21D;68546;59.142;37.948;2023-07-02T09:32:45;27.42;32.58
79140;HTU21D;68546;59.142;37.948;2023-07-02T09:35:12;27.41;32.90
79140;HTU21D;68546;59.142;37.948;2023-07-02T09:37:42;27.43;33.09
79140;HTU21D;68546;59.142;37.948;2023-07-02T09:40:09;27.50;32.78
79140;HTU21D;68546;59.142;37.948;2023-07-02T09:42:38;27.55;31.85
79140;HTU21D;68546;59.142;37.948;2023-07-02T09:45:08;27.57;31.98
79140;HTU21D;68546;59.142;37.948;2023-07-02T09:47:42;27.59;31.89
79140;HTU21D;68546;59.142;37.948;2023-07-02T09:50:11;27.60;31.80
79140;HTU21D;68546;59.142;37.948;2023-07-02T09:52:39;27.64;31.96
79140;HTU21D;68546;59.142;37.948;2023-07-02T09:55:07;27.63;32.04
79140;HTU21D;68546;59.142;37.948;2023-07-02T09:57:33;27.59;31.75
79140;HTU21D;68546;59.142;37.948;2023-07-02T10:00:02;27.54;31.54
79140;HTU21D;68546;59.142;37.948;2023-07-02T10:02:32;27.51;31.85
79140;HTU21D;68546;59.142;37.948;2023-07-02T10:05:01;27.47;31.63
79140;HTU21D;68546;59.142;37.948;2023-07-02T10:07:30;27.46;31.38
79140;HTU21D;68546;59.142;37.948;2023-07-02T10:09:56;27.47;31.48
79140;HTU21D;68546;59.142;37.948;2023-07-02T10:12:28;27.54;31.43
79140;HTU21D;68546;59.142;37.948;2023-07-02T10:14:56;27.59;31.51
79140;HTU21D;68546;59.142;37.948;2023-07-02T10:17:34;27.63;31.41
79140;HTU21D;68546;59.142;37.948;2023-07-02T10:20:02;27.64;31.51
79140;HTU21D;68546;59.142;37.948;2023-07-02T10:22:47;27.67;31.64
79140;HTU21D;68546;59.142;37.948;2023-07-02T10:25:27;27.69;31.73
79140;HTU21D;68546;59.142;37.948;2023-07-02T10:27:55;27.70;31.70
79140;HTU21D;68546;59.142;37.948;2023-07-02T10:30:33;27.71;31.65
79140;HTU21D;68546;59.142;37.948;2023-07-02T10:33:09;27.69;31.37
79140;HTU21D;68546;59.142;37.948;2023-07-02T10:35:36;27.63;31.28
79140;HTU21D;68546;59.142;37.948;2023-07-02T10:38:04;27.52;30.64
79140;HTU21D;68546;59.142;37.948;2023-07-02T10:40:32;27.36;30.62
79140;HTU21D;68546;59.142;37.948;2023-07-02T10:42:59;27.22;30.92
79140;HTU21D;68546;59.142;37.948;2023-07-02T10:45:33;27.12;31.12
79140;HTU21D;68546;59.142;37.948;2023-07-02T10:48:09;27.02;31.15
79140;HTU21D;68546;59.142;37.948;2023-07-02T10:50:37;26.95;31.50
79140;HTU21D;68546;59.142;37.948;2023-07-02T10:53:03;26.92;31.55
79140;HTU21D;68546;59.142;37.948;2023-07-02T10:55:29;26.89;30.61
79140;HTU21D;68546;59.142;37.948;2023-07-02T10:58:07;26.81;30.53
79140;HTU21D;68546;59.142;37.948;2023-07-02T11:00:48;26.73;31.03
79140;HTU21D;68546;59.142;37.948;2023-07-02T11:05:47;26.68;31.41
79140;HTU21D;68546;59.142;37.948;2023-07-02T11:08:14;26.69;31.59
79140;HTU21D;68546;59.142;37.948;2023-07-02T11:10:41;26.65;31.31
79140;HTU21D;68546;59.142;37.948;2023-07-02T11:13:19;26.58;31.10
79140;HTU21D;68546;59.142;37.948;2023-07-02T11:15:46;26.52;31.34
79140;HTU21D;68546;59.142;37.948;2023-07-02T11:18:14;26.47;31.40
79140;HTU21D;68546;59.142;37.948;2023-07-02T11:20:43;26.45;31.80
79140;HTU21D;68546;59.142;37.948;2023-07-02T11:23:22;26.46;32.13
79140;HTU21D;68546;59.142;37.948;2023-07-02T11:26:00;26.48;32.12
79140;HTU21D;68546;59.142;37.948;2023-07-02T11:28:29;26.51;32.28
79140;HTU21D;68546;59.142;37.948;2023-07-02T11:30:56;26.54;32.48
79140;HTU21D;68546;59.142;37.948;2023-07-02T11:33:39;26.66;32.69
79140;HTU21D;68546;59.142;37.948;2023-07-02T11:36:18;26.75;32.54
79140;HTU21D;68546;59.142;37.948;2023-07-02T11:38:46;26.82;32.43
79140;HTU21D;68546;59.142;37.948;2023-07-02T11:41:13;26.89;32.49
79140;HTU21D;68546;59.142;37.948;2023-07-02T11:43:39;26.99;32.38
79140;HTU21D;68546;59.142;37.948;2023-07-02T11:46:06;27.02;31.86
79140;HTU21D;68546;59.142;37.948;2023-07-02T11:48:33;26.97;31.77
79140;HTU21D;68546;59.142;37.948;2023-07-02T11:51:00;26.90;31.93
79140;HTU21D;68546;59.142;37.948;2023-07-02T11:53:27;26.81;32.28
79140;HTU21D;68546;59.142;37.948;2023-07-02T11:55:56;26.77;32.57
79140;HTU21D;68546;59.142;37.948;2023-07-02T11:58:23;26.73;32.95
79140;HTU21D;68546;59.142;37.948;2023-07-02T12:00:50;26.73;33.00
79140;HTU21D;68546;59.142;37.948;2023-07-02T12:03:16;26.75;33.15
79140;HTU21D;68546;59.142;37.948;2023-07-02T12:05:44;26.80;32.87
79140;HTU21D;68546;59.142;37.948;2023-07-02T12:08:10;26.90;32.62
79140;HTU21D;68546;59.142;37.948;2023-07-02T12:10:37;26.95;32.31
79140;HTU21D;68546;59.142;37.948;2023-07-02T12:13:03;27.04;32.19
79140;HTU21D;68546;59.142;37.948;2023-07-02T12:15:30;27.12;32.06
79140;HTU21D;68546;59.142;37.948;2023-07-02T12:17:58;27.20;31.87
79140;HTU21D;68546;59.142;37.948;2023-07-02T12:20:24;27.27;31.28
79140;HTU21D;68546;59.142;37.948;2023-07-02T12:22:51;27.32;31.16
79140;HTU21D;68546;59.142;37.948;2023-07-02T12:25:17;27.38;31.08
79140;HTU21D;68546;59.142;37.948;2023-07-02T12:27:44;27.41;31.07
79140;HTU21D;68546;59.142;37.948;2023-07-02T12:30:10;27.47;31.13
79140;HTU21D;68546;59.142;37.948;2023-07-02T12:32:38;27.54;30.55
79140;HTU21D;68546;59.142;37.948;2023-07-02T12:35:06;27.56;30.22
79140;HTU21D;68546;59.142;37.948;2023-07-02T12:37:32;27.56;30.06
79140;HTU21D;68546;59.142;37.948;2023-07-02T12:39:59;27.55;30.04
79140;HTU21D;68546;59.142;37.948;2023-07-02T12:42:25;27.59;30.19
79140;HTU21D;68546;59.142;37.948;2023-07-02T12:44:52;27.61;30.30
79140;HTU21D;68546;59.142;37.948;2023-07-02T12:47:18;27.65;30.31
79140;HTU21D;68546;59.142;37.948;2023-07-02T12:49:45;27.65;30.43
79140;HTU21D;68546;59.142;37.948;2023-07-02T12:52:12;27.69;30.36
79140;HTU21D;68546;59.142;37.948;2023-07-02T12:54:38;27.71;30.49
79140;HTU21D;68546;59.142;37.948;2023-07-02T12:57:04;27.72;30.49
79140;HTU21D;68546;59.142;37.948;2023-07-02T12:59:31;27.73;30.30
79140;HTU21D;68546;59.142;37.948;2023-07-02T13:01:57;27.73;30.08
79140;HTU21D;68546;59.142;37.948;2023-07-02T13:04:23;27.71;30.09
79140;HTU21D;68546;59.142;37.948;2023-07-02T13:06:50;27.70;30.06
79140;HTU21D;68546;59.142;37.948;2023-07-02T13:09:16;27.69;30.18
79140;HTU21D;68546;59.142;37.948;2023-07-02T13:11:42;27.68;30.02
79140;HTU21D;68546;59.142;37.948;2023-07-02T13:14:11;27.66;30.06
79140;HTU21D;68546;59.142;37.948;2023-07-02T13:16:38;27.67;30.25
79140;HTU21D;68546;59.142;37.948;2023-07-02T13:19:05;27.68;30.30
79140;HTU21D;68546;59.142;37.948;2023-07-02T13:21:31;27.71;30.11
79140;HTU21D;68546;59.142;37.948;2023-07-02T13:23:57;27.74;30.06
79140;HTU21D;68546;59.142;37.948;2023-07-02T13:26:23;27.73;30.13
79140;HTU21D;68546;59.142;37.948;2023-07-02T13:28:50;27.73;30.13
79140;HTU21D;68546;59.142;37.948;2023-07-02T13:31:16;27.70;30.02
79140;HTU21D;68546;59.142;37.948;2023-07-02T13:33:43;27.67;30.16
79140;HTU21D;68546;59.142;37.948;2023-07-02T13:36:09;27.64;30.45
79140;HTU21D;68546;59.142;37.948;2023-07-02T13:38:35;27.60;30.13
79140;HTU21D;68546;59.142;37.948;2023-07-02T13:41:01;27.59;30.12
79140;HTU21D;68546;59.142;37.948;2023-07-02T13:43:28;27.53;30.19
79140;HTU21D;68546;59.142;37.948;2023-07-02T13:45:54;27.51;30.30
79140;HTU21D;68546;59.142;37.948;2023-07-02T13:48:20;27.51;30.26
79140;HTU21D;68546;59.142;37.948;2023-07-02T13:50:47;27.53;30.21
79140;HTU21D;68546;59.142;37.948;2023-07-02T13:53:13;27.55;29.96
79140;HTU21D;68546;59.142;37.948;2023-07-02T13:55:40;27.55;30.00
79140;HTU21D;68546;59.142;37.948;2023-07-02T13:58:07;27.56;29.76
79140;HTU21D;68546;59.142;37.948;2023-07-02T14:00:33;27.57;29.86
79140;HTU21D;68546;59.142;37.948;2023-07-02T14:03:01;27.61;29.89
79140;HTU21D;68546;59.142;37.948;2023-07-02T14:05:27;27.64;29.97
79140;HTU21D;68546;59.142;37.948;2023-07-02T14:07:54;27.64;29.77
79140;HTU21D;68546;59.142;37.948;2023-07-02T14:10:20;27.65;29.77
79140;HTU21D;68546;59.142;37.948;2023-07-02T14:12:47;27.65;29.84
79140;HTU21D;68546;59.142;37.948;2023-07-02T14:15:13;27.65;29.73
79140;HTU21D;68546;59.142;37.948;2023-07-02T14:17:40;27.67;29.65
79140;HTU21D;68546;59.142;37.948;2023-07-02T14:20:08;27.69;29.77
79140;HTU21D;68546;59.142;37.948;2023-07-02T14:22:35;27.68;29.87
79140;HTU21D;68546;59.142;37.948;2023-07-02T14:25:03;27.67;29.80
79140;HTU21D;68546;59.142;37.948;2023-07-02T14:27:29;27.65;30.02
79140;HTU21D;68546;59.142;37.948;2023-07-02T14:29:56;27.66;30.15
79140;HTU21D;68546;59.142;37.948;2023-07-02T14:32:23;27.68;30.10
79140;HTU21D;68546;59.142;37.948;2023-07-02T14:34:49;27.70;30.14
79140;HTU21D;68546;59.142;37.948;2023-07-02T14:37:16;27.67;29.96
79140;HTU21D;68546;59.142;37.948;2023-07-02T14:39:42;27.67;29.90
79140;HTU21D;68546;59.142;37.948;2023-07-02T14:42:09;27.68;30.05
79140;HTU21D;68546;59.142;37.948;2023-07-02T14:44:35;27.65;30.19
79140;HTU21D;68546;59.142;37.948;2023-07-02T14:47:02;27.63;30.31
79140;HTU21D;68546;59.142;37.948;2023-07-02T14:49:29;27.61;30.45
79140;HTU21D;68546;59.142;37.948;2023-07-02T14:51:55;27.63;30.52
79140;HTU21D;68546;59.142;37.948;2023-07-02T14:54:22;27.64;30.58
79140;HTU21D;68546;59.142;37.948;2023-07-02T14:56:48;27.63;30.51
79140;HTU21D;68546;59.142;37.948;2023-07-02T14:59:14;27.56;30.38
79140;HTU21D;68546;59.142;37.948;2023-07-02T15:01:41;27.49;30.46
79140;HTU21D;68546;59.142;37.948;2023-07-02T15:04:08;27.42;30.65
79140;HTU21D;68546;59.142;37.948;2023-07-02T15:06:34;27.38;30.85
79140;HTU21D;68546;59.142;37.948;2023-07-02T15:09:05;27.30;30.92
79140;HTU21D;68546;59.142;37.948;2023-07-02T15:11:31;27.21;31.03